Terminal Aerodrome Forecast
Issued by NWS

Home | Current Version | Previous Version | Text Only | Print | Product List | Glossary On
Versions: 1 2 3 4 5 6 7 8 9 10 11 12 13 14 15 16 17 18
000
FTAK31 PAJN 211100
TAFAWG
TAF
PAWG 211125Z 2112/2212 12014G22KT 6SM -RA BR FEW040 OVC100
     FM211900 13015G25KT 6SM -SHRA BR SCT020 OVC040
     FM220200 19011G15KT P6SM -SHRA SCT015 OVC030
     FM220600 14010KT P6SM -SHRA SCT015 OVC030
      AMD LTD TO CLD VIS AND WIND 2112/2115=

USA.gov is the U.S. government's official web portal to all federal, state and local government web resources and services.